Seaspan Saigon — VRBT7 — position and weather

sailwx.info

Track history (hours):
 
Tides and Currents Weather Stations Pressure Air Temp Water Temp Dewpoint Dewpoint Depression Visibility Wind Speed Wind Dir Waves Ship Positions

Seaspan Saigon

Last reported at 2016-May-31 06:00 UTC. Time now 2016-May-31 14:19 UTC.
Position N 29°54' W 034°48'.

Length 260 m; draft 12.6 m.

Type: Ship (hazmat cat A). MMSI: 477106800.

Wind from 290 at 25 knots

Waves 3.0 meters (10 feet), 6 second period

Barometer 1016.0 mb
Air temperature 22.0 ° C
Visibility: greater than 10.8 NM
Dewpoint 18.9 ° C

Date/timePositionNaut miles runAvg speedWind from/ knotsBaromVisibWave heightAir tempDewpointWater temp
2016-May-31 06:00N 29°54' W 034°48'56215.6 290 / 251016.010.8 3.022.018.9
2016-May-29 18:00N 32°36' W 024°18'19516.2 320 / 131023.010.8 0.523.017.4
2016-May-29 06:00N 33°48' W 020°42'9616.1 270 / 101021.010.8 1.019.013.8
2016-May-29 00:00N 34°24' W 018°54'9215.3 270 / 121023.010.8 2.019.013.8
2016-May-28 18:00N 34°48' W 017°06'50815.0 290 / 151022.010.8 1.520.511.5
2016-May-27 08:00N 35°54' W 006°48'3417.0 1015.027.0 23.014.6
2016-May-27 06:00N 35°54' W 006°06'2412.8 270 / 61014.010.8 0.5
2016-May-27 04:07N 35°58' W 005°37'814.2
2016-May-27 03:33N 35°60' W 005°27'1312.8
2016-May-27 02:33N 36°04' W 005°12'21914.6
2016-May-26 11:32N 37°18' W 000°55'2116.0
2016-May-26 10:13N 37°33' W 000°36'1015.5
2016-May-26 09:33N 37°41' W 000°28'1818.4
2016-May-26 08:34N 37°56' W 000°16'4015.6
2016-May-26 06:00N 38°30' E 000°12'2415.7 360 / 101012.010.8 0.525.023.5
2016-May-26 04:29N 38°51' E 000°25'1515.6
2016-May-26 03:32N 39°02' E 000°12'3115.4
2016-May-26 01:33N 39°24' W 000°15'4 4.0
2016-May-26 00:31N 39°27' W 000°19'0 0.0
2016-May-25 23:31N 39°27' W 000°19'0 0.0
2016-May-25 22:31N 39°27' W 000°19'0 0.0
2016-May-25 21:31N 39°27' W 000°19'0 0.0
2016-May-25 20:31N 39°27' W 000°19'0 0.0
2016-May-25 19:31N 39°27' W 000°19'0 0.0
2016-May-25 18:25N 39°27' W 000°19'0 0.0
2016-May-25 17:31N 39°27' W 000°19'0 0.0
2016-May-25 16:31N 39°27' W 000°19'0 0.0
2016-May-25 15:31N 39°27' W 000°19'0 0.0
2016-May-25 14:31N 39°27' W 000°19'0 0.0
2016-May-25 13:31N 39°27' W 000°19'0 0.0
2016-May-25 12:31N 39°27' W 000°19'0 0.0
2016-May-25 11:31N 39°27' W 000°19'0 0.0
2016-May-25 10:31N 39°27' W 000°19'0 0.0
2016-May-25 09:31N 39°27' W 000°19'0 0.0
2016-May-25 08:31N 39°27' W 000°19'0 0.0
2016-May-25 07:31N 39°27' W 000°19'0 0.0
2016-May-25 06:31N 39°27' W 000°19'0 0.0
2016-May-25 05:31N 39°27' W 000°19'1 0.8
2016-May-25 04:34N 39°26' W 000°19'14 1.3
2016-May-24 18:18N 39°29' W 000°01'516.1
2016-May-24 18:00N 39°24' E 000°00'42 7.3 120 / 131011.010.8 0.524.020.2
2016-May-24 12:18N 39°40' E 000°50'1013.3
2016-May-24 11:32N 39°49' E 000°57'1313.2
2016-May-24 10:33N 39°60' E 001°06'1312.8
2016-May-24 09:33N 40°11' E 001°15'1413.6
2016-May-24 08:33N 40°22' E 001°25'1717.4
2016-May-24 07:33N 40°37' E 001°37'1616.3
2016-May-24 06:33N 40°50' E 001°49'5 9.7
2016-May-24 06:00N 40°54' E 001°54'1022.0 220 / 81018.010.8 0.517.011.5
2016-May-24 05:33N 41°03' E 001°59'1414.4
2016-May-24 04:34N 41°15' E 002°10'6 1.5
2016-May-24 00:20N 41°21' E 002°10'0 0.0
2016-May-23 18:31N 41°21' E 002°10'6 5.8
2016-May-23 17:33N 41°16' E 002°13'1 1.0
2016-May-23 16:33N 41°15' E 002°14'1313.1
2016-May-23 15:33N 41°18' E 002°31'3213.9
2016-May-23 13:16N 41°25' E 003°12'8611.9
2016-May-23 06:00N 42°06' E 004°54'9512.7 290 / 361017.010.8 3.514.510.7
2016-May-22 22:33N 42°56' E 006°43'1313.6
2016-May-22 21:33N 43°04' E 006°58'1413.4
2016-May-22 20:33N 43°11' E 007°14'1313.3
2016-May-22 19:33N 43°18' E 007°29'1313.4
2016-May-22 18:33N 43°25' E 007°45'1313.4
2016-May-22 17:33N 43°34' E 007°59'1413.5
2016-May-22 16:33N 43°44' E 008°11'1413.7
2016-May-22 15:33N 43°54' E 008°23'1413.5
2016-May-22 14:33N 44°06' E 008°33'1413.5
2016-May-22 13:33N 44°19' E 008°39'8 8.1
2016-May-22 12:30N 44°25' E 008°47'0 0.0
2016-May-22 11:33N 44°25' E 008°47'0 0.0
2016-May-22 10:33N 44°25' E 008°47'0 0.0
2016-May-22 09:33N 44°25' E 008°47'0 0.0
2016-May-22 08:33N 44°25' E 008°47'0 0.0
2016-May-22 07:33N 44°25' E 008°47'0 0.0
2016-May-22 06:33N 44°25' E 008°47'0 0.0
2016-May-22 05:33N 44°25' E 008°47'0 0.0
2016-May-22 04:21N 44°25' E 008°47'0 0.0
2016-May-22 03:30N 44°25' E 008°47'0 0.0
2016-May-22 02:33N 44°25' E 008°47'0 0.0
2016-May-22 01:33N 44°25' E 008°47'0 0.0
2016-May-22 00:30N 44°25' E 008°47'0 0.0
2016-May-21 23:33N 44°25' E 008°47'0 0.0
2016-May-21 22:33N 44°25' E 008°47'0 0.0
2016-May-21 21:33N 44°25' E 008°47'0 0.0
2016-May-21 20:33N 44°25' E 008°47'0 0.0
2016-May-21 19:30N 44°25' E 008°47'0 0.0
2016-May-21 18:33N 44°25' E 008°47'0 0.0
2016-May-21 17:33N 44°25' E 008°47'0 0.0
2016-May-21 16:33N 44°25' E 008°47'0 0.0
2016-May-21 15:34N 44°25' E 008°47'3 3.2
2016-May-21 14:34N 44°23' E 008°44'1 0.9
2016-May-21 13:33N 44°22' E 008°43'8 7.8
2016-May-21 12:33N 44°16' E 008°36'0 0.4
2016-May-21 11:33N 44°16' E 008°37'1 0.8
2016-May-21 10:33N 44°16' E 008°38'1 0.9
2016-May-21 09:33N 44°16' E 008°39'1 0.8
2016-May-21 08:33N 44°16' E 008°40'1 0.5
2016-May-21 07:33N 44°16' E 008°40'0 0.4
2016-May-21 06:33N 44°16' E 008°41'6 9.9
2016-May-21 06:00N 44°12' E 008°36'   090 / 21018.210.8 15.313.0
Track history (hours):
 
Tides and Currents Weather Stations Pressure Air Temp Water Temp Dewpoint Dewpoint Depression Visibility Wind Speed Wind Dir Waves Ship Positions

Seaspan Saigon

Last reported at 2016-May-31 06:00 UTC. Time now 2016-May-31 14:19 UTC.
Position N 29°54' W 034°48'.

Length 260 m; draft 12.6 m.

Type: Ship (hazmat cat A). MMSI: 477106800.

Wind from 290 at 25 knots

Waves 3.0 meters (10 feet), 6 second period

Barometer 1016.0 mb
Air temperature 22.0 ° C
Visibility: greater than 10.8 NM
Dewpoint 18.9 ° C

Date/timePositionNaut miles runAvg speedWind from/ knotsBaromVisibWave heightAir tempDewpointWater temp
2016-May-31 06:00N 29°54' W 034°48'56215.6 290 / 251016.010.8 3.022.018.9
2016-May-29 18:00N 32°36' W 024°18'19516.2 320 / 131023.010.8 0.523.017.4
2016-May-29 06:00N 33°48' W 020°42'9616.1 270 / 101021.010.8 1.019.013.8
2016-May-29 00:00N 34°24' W 018°54'9215.3 270 / 121023.010.8 2.019.013.8
2016-May-28 18:00N 34°48' W 017°06'50815.0 290 / 151022.010.8 1.520.511.5
2016-May-27 08:00N 35°54' W 006°48'3417.0 1015.027.0 23.014.6
2016-May-27 06:00N 35°54' W 006°06'2412.8 270 / 61014.010.8 0.5
2016-May-27 04:07N 35°58' W 005°37'814.2
2016-May-27 03:33N 35°60' W 005°27'1312.8
2016-May-27 02:33N 36°04' W 005°12'21914.6
2016-May-26 11:32N 37°18' W 000°55'2116.0
2016-May-26 10:13N 37°33' W 000°36'1015.5
2016-May-26 09:33N 37°41' W 000°28'1818.4
2016-May-26 08:34N 37°56' W 000°16'4015.6
2016-May-26 06:00N 38°30' E 000°12'2415.7 360 / 101012.010.8 0.525.023.5
2016-May-26 04:29N 38°51' E 000°25'1515.6
2016-May-26 03:32N 39°02' E 000°12'3115.4
2016-May-26 01:33N 39°24' W 000°15'4 4.0
2016-May-26 00:31N 39°27' W 000°19'0 0.0
2016-May-25 23:31N 39°27' W 000°19'0 0.0
2016-May-25 22:31N 39°27' W 000°19'0 0.0
2016-May-25 21:31N 39°27' W 000°19'0 0.0
2016-May-25 20:31N 39°27' W 000°19'0 0.0
2016-May-25 19:31N 39°27' W 000°19'0 0.0
2016-May-25 18:25N 39°27' W 000°19'0 0.0
2016-May-25 17:31N 39°27' W 000°19'0 0.0
2016-May-25 16:31N 39°27' W 000°19'0 0.0
2016-May-25 15:31N 39°27' W 000°19'0 0.0
2016-May-25 14:31N 39°27' W 000°19'0 0.0
2016-May-25 13:31N 39°27' W 000°19'0 0.0
2016-May-25 12:31N 39°27' W 000°19'0 0.0
2016-May-25 11:31N 39°27' W 000°19'0 0.0
2016-May-25 10:31N 39°27' W 000°19'0 0.0
2016-May-25 09:31N 39°27' W 000°19'0 0.0
2016-May-25 08:31N 39°27' W 000°19'0 0.0
2016-May-25 07:31N 39°27' W 000°19'0 0.0
2016-May-25 06:31N 39°27' W 000°19'0 0.0
2016-May-25 05:31N 39°27' W 000°19'1 0.8
2016-May-25 04:34N 39°26' W 000°19'14 1.3
2016-May-24 18:18N 39°29' W 000°01'516.1
2016-May-24 18:00N 39°24' E 000°00'42 7.3 120 / 131011.010.8 0.524.020.2
2016-May-24 12:18N 39°40' E 000°50'1013.3
2016-May-24 11:32N 39°49' E 000°57'1313.2
2016-May-24 10:33N 39°60' E 001°06'1312.8
2016-May-24 09:33N 40°11' E 001°15'1413.6
2016-May-24 08:33N 40°22' E 001°25'1717.4
2016-May-24 07:33N 40°37' E 001°37'1616.3
2016-May-24 06:33N 40°50' E 001°49'5 9.7
2016-May-24 06:00N 40°54' E 001°54'1022.0 220 / 81018.010.8 0.517.011.5
2016-May-24 05:33N 41°03' E 001°59'1414.4
2016-May-24 04:34N 41°15' E 002°10'6 1.5
2016-May-24 00:20N 41°21' E 002°10'0 0.0
2016-May-23 18:31N 41°21' E 002°10'6 5.8
2016-May-23 17:33N 41°16' E 002°13'1 1.0
2016-May-23 16:33N 41°15' E 002°14'1313.1
2016-May-23 15:33N 41°18' E 002°31'3213.9
2016-May-23 13:16N 41°25' E 003°12'8611.9
2016-May-23 06:00N 42°06' E 004°54'9512.7 290 / 361017.010.8 3.514.510.7
2016-May-22 22:33N 42°56' E 006°43'1313.6
2016-May-22 21:33N 43°04' E 006°58'1413.4
2016-May-22 20:33N 43°11' E 007°14'1313.3
2016-May-22 19:33N 43°18' E 007°29'1313.4
2016-May-22 18:33N 43°25' E 007°45'1313.4
2016-May-22 17:33N 43°34' E 007°59'1413.5
2016-May-22 16:33N 43°44' E 008°11'1413.7
2016-May-22 15:33N 43°54' E 008°23'1413.5
2016-May-22 14:33N 44°06' E 008°33'1413.5
2016-May-22 13:33N 44°19' E 008°39'8 8.1
2016-May-22 12:30N 44°25' E 008°47'0 0.0
2016-May-22 11:33N 44°25' E 008°47'0 0.0
2016-May-22 10:33N 44°25' E 008°47'0 0.0
2016-May-22 09:33N 44°25' E 008°47'0 0.0
2016-May-22 08:33N 44°25' E 008°47'0 0.0
2016-May-22 07:33N 44°25' E 008°47'0 0.0
2016-May-22 06:33N 44°25' E 008°47'0 0.0
2016-May-22 05:33N 44°25' E 008°47'0 0.0
2016-May-22 04:21N 44°25' E 008°47'0 0.0
2016-May-22 03:30N 44°25' E 008°47'0 0.0
2016-May-22 02:33N 44°25' E 008°47'0 0.0
2016-May-22 01:33N 44°25' E 008°47'0 0.0
2016-May-22 00:30N 44°25' E 008°47'0 0.0
2016-May-21 23:33N 44°25' E 008°47'0 0.0
2016-May-21 22:33N 44°25' E 008°47'0 0.0
2016-May-21 21:33N 44°25' E 008°47'0 0.0
2016-May-21 20:33N 44°25' E 008°47'0 0.0
2016-May-21 19:30N 44°25' E 008°47'0 0.0
2016-May-21 18:33N 44°25' E 008°47'0 0.0
2016-May-21 17:33N 44°25' E 008°47'0 0.0
2016-May-21 16:33N 44°25' E 008°47'0 0.0
2016-May-21 15:34N 44°25' E 008°47'3 3.2
2016-May-21 14:34N 44°23' E 008°44'1 0.9
2016-May-21 13:33N 44°22' E 008°43'8 7.8
2016-May-21 12:33N 44°16' E 008°36'0 0.4
2016-May-21 11:33N 44°16' E 008°37'1 0.8
2016-May-21 10:33N 44°16' E 008°38'1 0.9
2016-May-21 09:33N 44°16' E 008°39'1 0.8
2016-May-21 08:33N 44°16' E 008°40'1 0.5
2016-May-21 07:33N 44°16' E 008°40'0 0.4
2016-May-21 06:33N 44°16' E 008°41'6 9.9
2016-May-21 06:00N 44°12' E 008°36'   090 / 21018.210.8 15.313.0

Dump ship's entire track history